sensor_id;sensor_type;location;lat;lon;timestamp;P1;durP1;ratioP1;P2;durP2;ratioP2
19836;SDS011;10079;55.740;37.662;2023-07-13T00:00:15;3.13;;;1.97;;
19836;SDS011;10079;55.740;37.662;2023-07-13T00:02:56;2.83;;;1.90;;
19836;SDS011;10079;55.740;37.662;2023-07-13T00:05:37;1.47;;;1.37;;
19836;SDS011;10079;55.740;37.662;2023-07-13T00:08:18;2.30;;;1.63;;
19836;SDS011;10079;55.740;37.662;2023-07-13T00:10:59;4.53;;;2.00;;
19836;SDS011;10079;55.740;37.662;2023-07-13T00:13:41;2.80;;;1.67;;
19836;SDS011;10079;55.740;37.662;2023-07-13T00:16:22;2.10;;;1.60;;
19836;SDS011;10079;55.740;37.662;2023-07-13T00:19:03;3.50;;;1.73;;
19836;SDS011;10079;55.740;37.662;2023-07-13T00:21:44;2.37;;;1.87;;
19836;SDS011;10079;55.740;37.662;2023-07-13T00:24:25;2.90;;;1.93;;
19836;SDS011;10079;55.740;37.662;2023-07-13T00:27:08;3.47;;;1.80;;
19836;SDS011;10079;55.740;37.662;2023-07-13T00:40:27;1.90;;;1.70;;
19836;SDS011;10079;55.740;37.662;2023-07-13T00:43:13;2.00;;;1.70;;
19836;SDS011;10079;55.740;37.662;2023-07-13T00:46:10;2.47;;;1.60;;
19836;SDS011;10079;55.740;37.662;2023-07-13T00:49:03;2.40;;;2.03;;
19836;SDS011;10079;55.740;37.662;2023-07-13T00:51:55;2.30;;;1.80;;
19836;SDS011;10079;55.740;37.662;2023-07-13T00:54:37;2.40;;;1.93;;
19836;SDS011;10079;55.740;37.662;2023-07-13T00:57:27;2.43;;;1.67;;
19836;SDS011;10079;55.740;37.662;2023-07-13T01:00:08;2.77;;;1.97;;
19836;SDS011;10079;55.740;37.662;2023-07-13T01:03:01;2.50;;;1.93;;
19836;SDS011;10079;55.740;37.662;2023-07-13T01:05:42;2.27;;;1.70;;
19836;SDS011;10079;55.740;37.662;2023-07-13T01:08:34;3.50;;;1.80;;
19836;SDS011;10079;55.740;37.662;2023-07-13T01:11:24;2.50;;;1.63;;
19836;SDS011;10079;55.740;37.662;2023-07-13T01:14:05;3.27;;;2.30;;
19836;SDS011;10079;55.740;37.662;2023-07-13T01:16:49;2.47;;;1.67;;
19836;SDS011;10079;55.740;37.662;2023-07-13T01:19:35;2.40;;;2.07;;
19836;SDS011;10079;55.740;37.662;2023-07-13T01:22:16;2.40;;;1.77;;
19836;SDS011;10079;55.740;37.662;2023-07-13T01:24:57;2.20;;;1.63;;
19836;SDS011;10079;55.740;37.662;2023-07-13T01:38:09;2.97;;;1.87;;
19836;SDS011;10079;55.740;37.662;2023-07-13T01:40:50;4.47;;;1.90;;
19836;SDS011;10079;55.740;37.662;2023-07-13T01:43:31;3.40;;;2.33;;
19836;SDS011;10079;55.740;37.662;2023-07-13T01:46:11;4.97;;;2.10;;
19836;SDS011;10079;55.740;37.662;2023-07-13T01:48:52;2.10;;;1.87;;
19836;SDS011;10079;55.740;37.662;2023-07-13T01:51:34;2.90;;;1.63;;
19836;SDS011;10079;55.740;37.662;2023-07-13T01:54:14;3.70;;;2.07;;
19836;SDS011;10079;55.740;37.662;2023-07-13T01:56:55;2.57;;;1.70;;
19836;SDS011;10079;55.740;37.662;2023-07-13T01:59:40;4.00;;;2.37;;
19836;SDS011;10079;55.740;37.662;2023-07-13T02:02:21;2.47;;;2.17;;
19836;SDS011;10079;55.740;37.662;2023-07-13T02:05:02;4.60;;;1.80;;
19836;SDS011;10079;55.740;37.662;2023-07-13T02:07:43;2.70;;;2.03;;
19836;SDS011;10079;55.740;37.662;2023-07-13T02:10:23;4.27;;;2.33;;
19836;SDS011;10079;55.740;37.662;2023-07-13T02:13:05;3.47;;;2.23;;
19836;SDS011;10079;55.740;37.662;2023-07-13T02:15:45;3.67;;;2.60;;
19836;SDS011;10079;55.740;37.662;2023-07-13T02:18:26;3.57;;;2.27;;
19836;SDS011;10079;55.740;37.662;2023-07-13T02:21:09;3.33;;;2.40;;
19836;SDS011;10079;55.740;37.662;2023-07-13T02:24:03;4.83;;;2.10;;
19836;SDS011;10079;55.740;37.662;2023-07-13T02:26:57;2.93;;;2.10;;
19836;SDS011;10079;55.740;37.662;2023-07-13T02:29:39;3.00;;;2.20;;
19836;SDS011;10079;55.740;37.662;2023-07-13T02:32:20;2.90;;;2.20;;
19836;SDS011;10079;55.740;37.662;2023-07-13T02:35:01;3.53;;;2.30;;
19836;SDS011;10079;55.740;37.662;2023-07-13T02:37:41;4.03;;;2.40;;
19836;SDS011;10079;55.740;37.662;2023-07-13T02:40:26;4.17;;;2.00;;
19836;SDS011;10079;55.740;37.662;2023-07-13T02:43:18;2.60;;;2.20;;
19836;SDS011;10079;55.740;37.662;2023-07-13T02:45:59;3.43;;;1.90;;
19836;SDS011;10079;55.740;37.662;2023-07-13T02:48:43;2.87;;;2.03;;
19836;SDS011;10079;55.740;37.662;2023-07-13T02:51:24;3.17;;;1.97;;
19836;SDS011;10079;55.740;37.662;2023-07-13T02:54:09;3.47;;;2.00;;
19836;SDS011;10079;55.740;37.662;2023-07-13T02:56:49;2.70;;;2.10;;
19836;SDS011;10079;55.740;37.662;2023-07-13T02:59:31;4.07;;;2.13;;
19836;SDS011;10079;55.740;37.662;2023-07-13T03:02:11;3.93;;;1.83;;
19836;SDS011;10079;55.740;37.662;2023-07-13T03:04:52;2.27;;;2.07;;
19836;SDS011;10079;55.740;37.662;2023-07-13T03:07:33;3.83;;;2.13;;
19836;SDS011;10079;55.740;37.662;2023-07-13T03:10:22;2.47;;;2.20;;
19836;SDS011;10079;55.740;37.662;2023-07-13T03:13:02;4.83;;;2.40;;
19836;SDS011;10079;55.740;37.662;2023-07-13T03:15:43;3.67;;;2.23;;
19836;SDS011;10079;55.740;37.662;2023-07-13T03:18:25;3.10;;;2.00;;
19836;SDS011;10079;55.740;37.662;2023-07-13T03:21:05;2.87;;;2.10;;
19836;SDS011;10079;55.740;37.662;2023-07-13T03:23:46;2.43;;;2.03;;
19836;SDS011;10079;55.740;37.662;2023-07-13T03:26:26;4.37;;;2.40;;
19836;SDS011;10079;55.740;37.662;2023-07-13T03:29:11;2.87;;;2.40;;
19836;SDS011;10079;55.740;37.662;2023-07-13T03:31:51;6.80;;;2.40;;
19836;SDS011;10079;55.740;37.662;2023-07-13T03:34:32;3.13;;;2.03;;
19836;SDS011;10079;55.740;37.662;2023-07-13T03:37:13;3.13;;;2.30;;
19836;SDS011;10079;55.740;37.662;2023-07-13T03:39:53;2.80;;;2.43;;
19836;SDS011;10079;55.740;37.662;2023-07-13T03:42:34;3.53;;;2.27;;
19836;SDS011;10079;55.740;37.662;2023-07-13T03:45:15;3.60;;;2.53;;
19836;SDS011;10079;55.740;37.662;2023-07-13T03:47:55;2.37;;;2.17;;
19836;SDS011;10079;55.740;37.662;2023-07-13T03:50:36;4.87;;;2.50;;
19836;SDS011;10079;55.740;37.662;2023-07-13T03:53:17;3.40;;;1.90;;
19836;SDS011;10079;55.740;37.662;2023-07-13T03:55:57;7.13;;;2.40;;
19836;SDS011;10079;55.740;37.662;2023-07-13T03:58:47;3.73;;;2.43;;
19836;SDS011;10079;55.740;37.662;2023-07-13T04:01:39;4.90;;;2.57;;
19836;SDS011;10079;55.740;37.662;2023-07-13T04:04:32;2.83;;;2.27;;
19836;SDS011;10079;55.740;37.662;2023-07-13T04:07:21;6.40;;;2.93;;
19836;SDS011;10079;55.740;37.662;2023-07-13T04:10:06;5.47;;;2.37;;
19836;SDS011;10079;55.740;37.662;2023-07-13T04:12:47;3.07;;;2.57;;
19836;SDS011;10079;55.740;37.662;2023-07-13T04:15:29;4.20;;;2.47;;
19836;SDS011;10079;55.740;37.662;2023-07-13T04:18:08;4.67;;;2.53;;
19836;SDS011;10079;55.740;37.662;2023-07-13T04:20:49;4.33;;;2.30;;
19836;SDS011;10079;55.740;37.662;2023-07-13T04:23:30;2.77;;;2.40;;
19836;SDS011;10079;55.740;37.662;2023-07-13T04:26:10;4.67;;;2.30;;
19836;SDS011;10079;55.740;37.662;2023-07-13T04:28:55;3.07;;;2.50;;
19836;SDS011;10079;55.740;37.662;2023-07-13T04:31:35;4.13;;;2.20;;
19836;SDS011;10079;55.740;37.662;2023-07-13T04:34:19;3.77;;;2.50;;
19836;SDS011;10079;55.740;37.662;2023-07-13T04:37:04;3.17;;;2.47;;
19836;SDS011;10079;55.740;37.662;2023-07-13T04:39:45;4.90;;;2.33;;
19836;SDS011;10079;55.740;37.662;2023-07-13T04:42:26;3.37;;;2.40;;
19836;SDS011;10079;55.740;37.662;2023-07-13T04:45:07;3.67;;;2.20;;
19836;SDS011;10079;55.740;37.662;2023-07-13T04:47:51;3.67;;;2.63;;
19836;SDS011;10079;55.740;37.662;2023-07-13T04:50:32;3.80;;;2.40;;
19836;SDS011;10079;55.740;37.662;2023-07-13T04:53:13;3.50;;;2.27;;
19836;SDS011;10079;55.740;37.662;2023-07-13T04:55:53;3.07;;;2.20;;
19836;SDS011;10079;55.740;37.662;2023-07-13T04:58:34;3.87;;;2.37;;
19836;SDS011;10079;55.740;37.662;2023-07-13T05:01:15;6.57;;;2.37;;
19836;SDS011;10079;55.740;37.662;2023-07-13T05:03:55;2.93;;;2.10;;
19836;SDS011;10079;55.740;37.662;2023-07-13T05:06:36;4.40;;;2.63;;
19836;SDS011;10079;55.740;37.662;2023-07-13T05:09:17;5.33;;;2.60;;
19836;SDS011;10079;55.740;37.662;2023-07-13T05:12:10;3.67;;;2.50;;
19836;SDS011;10079;55.740;37.662;2023-07-13T05:14:51;4.90;;;2.70;;
19836;SDS011;10079;55.740;37.662;2023-07-13T05:17:32;4.00;;;2.77;;
19836;SDS011;10079;55.740;37.662;2023-07-13T05:20:13;6.37;;;3.10;;
19836;SDS011;10079;55.740;37.662;2023-07-13T05:22:54;2.73;;;2.33;;
19836;SDS011;10079;55.740;37.662;2023-07-13T05:25:35;2.30;;;2.00;;
19836;SDS011;10079;55.740;37.662;2023-07-13T05:28:16;3.97;;;2.63;;
19836;SDS011;10079;55.740;37.662;2023-07-13T05:30:56;4.07;;;2.50;;
19836;SDS011;10079;55.740;37.662;2023-07-13T05:33:37;4.73;;;2.10;;
19836;SDS011;10079;55.740;37.662;2023-07-13T05:36:18;5.13;;;3.03;;
19836;SDS011;10079;55.740;37.662;2023-07-13T05:39:03;3.87;;;2.30;;
19836;SDS011;10079;55.740;37.662;2023-07-13T05:41:51;5.83;;;2.07;;
19836;SDS011;10079;55.740;37.662;2023-07-13T05:44:44;2.67;;;2.40;;
19836;SDS011;10079;55.740;37.662;2023-07-13T05:47:25;5.20;;;2.30;;
19836;SDS011;10079;55.740;37.662;2023-07-13T05:50:14;5.97;;;2.43;;
19836;SDS011;10079;55.740;37.662;2023-07-13T05:52:55;4.23;;;2.53;;
19836;SDS011;10079;55.740;37.662;2023-07-13T05:55:41;3.43;;;2.13;;
19836;SDS011;10079;55.740;37.662;2023-07-13T05:58:26;2.50;;;2.00;;
19836;SDS011;10079;55.740;37.662;2023-07-13T06:01:19;3.77;;;2.40;;
19836;SDS011;10079;55.740;37.662;2023-07-13T06:04:08;3.83;;;2.30;;
19836;SDS011;10079;55.740;37.662;2023-07-13T06:06:49;3.87;;;2.77;;
19836;SDS011;10079;55.740;37.662;2023-07-13T06:09:42;3.60;;;2.57;;
19836;SDS011;10079;55.740;37.662;2023-07-13T06:22:53;3.70;;;2.40;;
19836;SDS011;10079;55.740;37.662;2023-07-13T06:25:46;4.70;;;2.77;;
19836;SDS011;10079;55.740;37.662;2023-07-13T06:28:27;3.73;;;2.30;;
19836;SDS011;10079;55.740;37.662;2023-07-13T06:31:08;2.73;;;2.10;;
19836;SDS011;10079;55.740;37.662;2023-07-13T06:33:49;5.43;;;2.13;;
19836;SDS011;10079;55.740;37.662;2023-07-13T06:36:29;4.37;;;2.30;;
19836;SDS011;10079;55.740;37.662;2023-07-13T06:39:10;2.87;;;1.93;;
19836;SDS011;10079;55.740;37.662;2023-07-13T06:41:51;2.30;;;2.10;;
19836;SDS011;10079;55.740;37.662;2023-07-13T06:44:44;5.10;;;2.20;;
19836;SDS011;10079;55.740;37.662;2023-07-13T06:47:24;3.73;;;2.07;;
19836;SDS011;10079;55.740;37.662;2023-07-13T06:50:05;3.87;;;2.33;;
19836;SDS011;10079;55.740;37.662;2023-07-13T06:52:46;4.23;;;2.10;;
19836;SDS011;10079;55.740;37.662;2023-07-13T06:55:27;4.63;;;2.40;;
19836;SDS011;10079;55.740;37.662;2023-07-13T06:58:08;3.10;;;2.47;;
19836;SDS011;10079;55.740;37.662;2023-07-13T07:00:50;3.53;;;2.27;;
19836;SDS011;10079;55.740;37.662;2023-07-13T07:03:33;2.60;;;2.07;;
19836;SDS011;10079;55.740;37.662;2023-07-13T07:06:17;5.93;;;2.40;;
19836;SDS011;10079;55.740;37.662;2023-07-13T07:09:02;3.80;;;2.57;;
19836;SDS011;10079;55.740;37.662;2023-07-13T07:11:46;5.03;;;3.20;;
19836;SDS011;10079;55.740;37.662;2023-07-13T07:14:27;5.20;;;2.93;;
19836;SDS011;10079;55.740;37.662;2023-07-13T07:17:11;5.37;;;2.10;;
19836;SDS011;10079;55.740;37.662;2023-07-13T07:19:52;4.73;;;2.60;;
19836;SDS011;10079;55.740;37.662;2023-07-13T07:22:33;7.23;;;2.70;;
19836;SDS011;10079;55.740;37.662;2023-07-13T07:25:13;3.57;;;2.30;;
19836;SDS011;10079;55.740;37.662;2023-07-13T07:28:03;7.00;;;3.40;;
19836;SDS011;10079;55.740;37.662;2023-07-13T07:30:44;4.27;;;2.40;;
19836;SDS011;10079;55.740;37.662;2023-07-13T07:33:25;4.37;;;2.37;;
19836;SDS011;10079;55.740;37.662;2023-07-13T07:46:42;3.47;;;2.43;;
19836;SDS011;10079;55.740;37.662;2023-07-13T07:49:31;3.00;;;2.30;;
19836;SDS011;10079;55.740;37.662;2023-07-13T07:52:12;3.63;;;2.00;;
19836;SDS011;10079;55.740;37.662;2023-07-13T07:54:53;4.57;;;3.00;;
19836;SDS011;10079;55.740;37.662;2023-07-13T07:57:46;4.23;;;2.10;;
19836;SDS011;10079;55.740;37.662;2023-07-13T08:00:27;5.50;;;2.50;;
19836;SDS011;10079;55.740;37.662;2023-07-13T08:03:09;2.50;;;2.30;;
19836;SDS011;10079;55.740;37.662;2023-07-13T08:05:52;3.37;;;2.43;;
19836;SDS011;10079;55.740;37.662;2023-07-13T08:08:34;5.57;;;2.20;;
19836;SDS011;10079;55.740;37.662;2023-07-13T08:11:14;3.87;;;2.13;;
19836;SDS011;10079;55.740;37.662;2023-07-13T08:13:55;6.47;;;2.43;;
19836;SDS011;10079;55.740;37.662;2023-07-13T08:16:36;4.17;;;2.60;;
19836;SDS011;10079;55.740;37.662;2023-07-13T08:19:20;2.40;;;2.20;;
19836;SDS011;10079;55.740;37.662;2023-07-13T08:22:01;6.60;;;3.00;;
19836;SDS011;10079;55.740;37.662;2023-07-13T08:24:46;3.57;;;2.80;;
19836;SDS011;10079;55.740;37.662;2023-07-13T08:27:39;5.00;;;3.07;;
19836;SDS011;10079;55.740;37.662;2023-07-13T08:30:31;4.40;;;2.83;;
19836;SDS011;10079;55.740;37.662;2023-07-13T08:43:51;5.97;;;3.10;;
19836;SDS011;10079;55.740;37.662;2023-07-13T08:46:33;3.30;;;2.30;;
19836;SDS011;10079;55.740;37.662;2023-07-13T08:49:16;3.87;;;2.60;;
19836;SDS011;10079;55.740;37.662;2023-07-13T08:51:59;5.60;;;2.87;;
19836;SDS011;10079;55.740;37.662;2023-07-13T08:54:44;4.97;;;2.50;;
19836;SDS011;10079;55.740;37.662;2023-07-13T08:57:33;4.20;;;3.00;;
19836;SDS011;10079;55.740;37.662;2023-07-13T09:00:11;3.20;;;2.67;;
19836;SDS011;10079;55.740;37.662;2023-07-13T09:02:57;3.70;;;2.50;;
19836;SDS011;10079;55.740;37.662;2023-07-13T09:05:38;3.27;;;2.60;;
19836;SDS011;10079;55.740;37.662;2023-07-13T09:08:38;5.93;;;2.70;;
19836;SDS011;10079;55.740;37.662;2023-07-13T09:11:25;4.33;;;3.03;;
19836;SDS011;10079;55.740;37.662;2023-07-13T09:17:12;3.73;;;3.17;;
19836;SDS011;10079;55.740;37.662;2023-07-13T09:23:00;8.70;;;3.50;;
19836;SDS011;10079;55.740;37.662;2023-07-13T09:25:40;4.53;;;2.97;;
19836;SDS011;10079;55.740;37.662;2023-07-13T09:28:23;6.50;;;3.87;;
19836;SDS011;10079;55.740;37.662;2023-07-13T09:31:06;7.33;;;3.03;;
19836;SDS011;10079;55.740;37.662;2023-07-13T09:33:46;4.43;;;3.10;;
19836;SDS011;10079;55.740;37.662;2023-07-13T09:36:28;5.67;;;3.00;;
19836;SDS011;10079;55.740;37.662;2023-07-13T09:39:25;4.90;;;2.80;;
19836;SDS011;10079;55.740;37.662;2023-07-13T09:42:00;3.87;;;3.17;;
19836;SDS011;10079;55.740;37.662;2023-07-13T09:47:32;7.17;;;3.63;;
19836;SDS011;10079;55.740;37.662;2023-07-13T09:50:14;3.90;;;3.03;;
19836;SDS011;10079;55.740;37.662;2023-07-13T09:52:54;4.40;;;2.63;;
19836;SDS011;10079;55.740;37.662;2023-07-13T09:55:36;6.40;;;3.37;;
19836;SDS011;10079;55.740;37.662;2023-07-13T09:58:24;5.77;;;3.60;;
19836;SDS011;10079;55.740;37.662;2023-07-13T10:01:14;5.07;;;3.70;;
19836;SDS011;10079;55.740;37.662;2023-07-13T10:03:54;5.73;;;3.23;;
19836;SDS011;10079;55.740;37.662;2023-07-13T10:06:47;4.93;;;2.83;;
19836;SDS011;10079;55.740;37.662;2023-07-13T10:09:28;6.97;;;4.17;;
19836;SDS011;10079;55.740;37.662;2023-07-13T10:12:13;5.37;;;4.17;;
19836;SDS011;10079;55.740;37.662;2023-07-13T10:14:55;6.83;;;3.50;;
19836;SDS011;10079;55.740;37.662;2023-07-13T10:17:36;5.20;;;3.00;;
19836;SDS011;10079;55.740;37.662;2023-07-13T10:20:18;5.77;;;3.00;;
19836;SDS011;10079;55.740;37.662;2023-07-13T10:23:02;4.17;;;2.87;;
19836;SDS011;10079;55.740;37.662;2023-07-13T10:25:42;6.80;;;4.10;;
19836;SDS011;10079;55.740;37.662;2023-07-13T10:28:27;5.80;;;4.00;;
19836;SDS011;10079;55.740;37.662;2023-07-13T10:31:12;6.47;;;3.70;;
19836;SDS011;10079;55.740;37.662;2023-07-13T10:33:51;3.97;;;3.10;;
19836;SDS011;10079;55.740;37.662;2023-07-13T10:36:33;5.97;;;3.10;;
19836;SDS011;10079;55.740;37.662;2023-07-13T10:39:16;5.10;;;3.50;;
19836;SDS011;10079;55.740;37.662;2023-07-13T10:42:00;3.87;;;3.40;;
19836;SDS011;10079;55.740;37.662;2023-07-13T10:44:40;3.90;;;2.87;;
19836;SDS011;10079;55.740;37.662;2023-07-13T10:47:22;6.03;;;3.10;;
19836;SDS011;10079;55.740;37.662;2023-07-13T10:50:04;5.47;;;3.30;;
19836;SDS011;10079;55.740;37.662;2023-07-13T10:52:50;4.73;;;3.07;;
19836;SDS011;10079;55.740;37.662;2023-07-13T10:55:33;4.33;;;2.97;;
19836;SDS011;10079;55.740;37.662;2023-07-13T10:58:18;4.27;;;3.10;;
19836;SDS011;10079;55.740;37.662;2023-07-13T11:01:14;3.80;;;2.93;;
19836;SDS011;10079;55.740;37.662;2023-07-13T11:03:58;5.50;;;3.27;;
19836;SDS011;10079;55.740;37.662;2023-07-13T11:31:03;5.57;;;3.70;;
19836;SDS011;10079;55.740;37.662;2023-07-13T11:33:56;8.83;;;4.90;;
19836;SDS011;10079;55.740;37.662;2023-07-13T11:36:37;5.40;;;3.47;;
19836;SDS011;10079;55.740;37.662;2023-07-13T11:39:18;10.23;;;4.67;;
19836;SDS011;10079;55.740;37.662;2023-07-13T11:42:12;6.93;;;3.40;;
19836;SDS011;10079;55.740;37.662;2023-07-13T11:45:01;5.43;;;3.43;;
19836;SDS011;10079;55.740;37.662;2023-07-13T11:58:23;4.80;;;3.27;;
19836;SDS011;10079;55.740;37.662;2023-07-13T12:11:35;5.97;;;3.40;;
19836;SDS011;10079;55.740;37.662;2023-07-13T12:14:14;6.17;;;3.57;;
19836;SDS011;10079;55.740;37.662;2023-07-13T12:16:59;5.13;;;3.30;;
19836;SDS011;10079;55.740;37.662;2023-07-13T12:19:40;9.47;;;4.03;;
19836;SDS011;10079;55.740;37.662;2023-07-13T12:22:32;6.97;;;3.37;;
19836;SDS011;10079;55.740;37.662;2023-07-13T12:25:13;5.13;;;3.23;;
19836;SDS011;10079;55.740;37.662;2023-07-13T12:27:54;5.27;;;3.40;;
19836;SDS011;10079;55.740;37.662;2023-07-13T12:30:38;4.87;;;2.90;;
19836;SDS011;10079;55.740;37.662;2023-07-13T12:34:25;6.33;;;3.33;;
19836;SDS011;10079;55.740;37.662;2023-07-13T12:37:08;6.13;;;3.43;;
19836;SDS011;10079;55.740;37.662;2023-07-13T12:40:00;4.90;;;3.30;;
19836;SDS011;10079;55.740;37.662;2023-07-13T12:42:45;6.20;;;3.07;;
19836;SDS011;10079;55.740;37.662;2023-07-13T12:45:37;6.87;;;3.63;;
19836;SDS011;10079;55.740;37.662;2023-07-13T12:48:17;5.90;;;3.70;;
19836;SDS011;10079;55.740;37.662;2023-07-13T12:51:02;6.10;;;3.77;;
19836;SDS011;10079;55.740;37.662;2023-07-13T12:53:47;6.00;;;3.53;;
19836;SDS011;10079;55.740;37.662;2023-07-13T12:56:24;4.83;;;3.07;;
19836;SDS011;10079;55.740;37.662;2023-07-13T12:59:04;6.73;;;3.07;;
19836;SDS011;10079;55.740;37.662;2023-07-13T13:01:45;4.73;;;3.30;;
19836;SDS011;10079;55.740;37.662;2023-07-13T13:04:26;6.53;;;3.47;;
19836;SDS011;10079;55.740;37.662;2023-07-13T13:07:08;7.43;;;3.53;;
19836;SDS011;10079;55.740;37.662;2023-07-13T13:09:47;6.47;;;3.43;;
19836;SDS011;10079;55.740;37.662;2023-07-13T13:12:28;6.93;;;3.23;;
